sensor_id;sensor_type;location;lat;lon;timestamp;P1;durP1;ratioP1;P2;durP2;ratioP2
21305;SDS011;10812;51.838;5.838;2023-04-24T00:01:49;15.80;;;12.53;;
21305;SDS011;10812;51.838;5.838;2023-04-24T00:04:19;18.00;;;12.83;;
21305;SDS011;10812;51.838;5.838;2023-04-24T00:06:47;17.30;;;11.77;;
21305;SDS011;10812;51.838;5.838;2023-04-24T00:09:20;17.47;;;12.60;;
21305;SDS011;10812;51.838;5.838;2023-04-24T00:11:48;15.13;;;11.30;;
21305;SDS011;10812;51.838;5.838;2023-04-24T00:14:16;15.87;;;12.00;;
21305;SDS011;10812;51.838;5.838;2023-04-24T00:16:44;14.50;;;10.77;;
21305;SDS011;10812;51.838;5.838;2023-04-24T00:19:12;14.73;;;10.70;;
21305;SDS011;10812;51.838;5.838;2023-04-24T00:21:42;14.43;;;10.73;;
21305;SDS011;10812;51.838;5.838;2023-04-24T00:24:10;13.80;;;9.87;;
21305;SDS011;10812;51.838;5.838;2023-04-24T00:26:38;13.33;;;9.80;;
21305;SDS011;10812;51.838;5.838;2023-04-24T00:29:06;14.57;;;10.23;;
21305;SDS011;10812;51.838;5.838;2023-04-24T00:31:34;14.37;;;11.10;;
21305;SDS011;10812;51.838;5.838;2023-04-24T00:34:03;14.93;;;10.80;;
21305;SDS011;10812;51.838;5.838;2023-04-24T00:36:31;14.30;;;10.63;;
21305;SDS011;10812;51.838;5.838;2023-04-24T00:39:01;13.97;;;10.50;;
21305;SDS011;10812;51.838;5.838;2023-04-24T00:41:29;13.67;;;9.53;;
21305;SDS011;10812;51.838;5.838;2023-04-24T00:43:58;14.87;;;10.03;;
21305;SDS011;10812;51.838;5.838;2023-04-24T00:46:26;13.80;;;10.63;;
21305;SDS011;10812;51.838;5.838;2023-04-24T00:48:55;14.17;;;10.53;;
21305;SDS011;10812;51.838;5.838;2023-04-24T00:51:24;13.67;;;10.37;;
21305;SDS011;10812;51.838;5.838;2023-04-24T00:53:53;14.83;;;10.73;;
21305;SDS011;10812;51.838;5.838;2023-04-24T00:56:23;13.20;;;10.57;;
21305;SDS011;10812;51.838;5.838;2023-04-24T00:58:51;12.20;;;9.70;;
21305;SDS011;10812;51.838;5.838;2023-04-24T01:01:20;13.97;;;10.50;;
21305;SDS011;10812;51.838;5.838;2023-04-24T01:03:49;13.73;;;10.40;;
21305;SDS011;10812;51.838;5.838;2023-04-24T01:06:20;11.03;;;9.17;;
21305;SDS011;10812;51.838;5.838;2023-04-24T01:08:49;11.07;;;9.23;;
21305;SDS011;10812;51.838;5.838;2023-04-24T01:11:17;13.87;;;9.43;;
21305;SDS011;10812;51.838;5.838;2023-04-24T01:13:47;10.47;;;9.17;;
21305;SDS011;10812;51.838;5.838;2023-04-24T01:16:15;11.20;;;8.53;;
21305;SDS011;10812;51.838;5.838;2023-04-24T01:18:47;13.00;;;9.27;;
21305;SDS011;10812;51.838;5.838;2023-04-24T01:21:15;12.60;;;9.87;;
21305;SDS011;10812;51.838;5.838;2023-04-24T01:23:46;12.53;;;10.63;;
21305;SDS011;10812;51.838;5.838;2023-04-24T01:26:15;12.63;;;10.10;;
21305;SDS011;10812;51.838;5.838;2023-04-24T01:28:46;12.07;;;10.53;;
21305;SDS011;10812;51.838;5.838;2023-04-24T01:31:15;12.60;;;9.77;;
21305;SDS011;10812;51.838;5.838;2023-04-24T01:33:43;15.13;;;10.57;;
21305;SDS011;10812;51.838;5.838;2023-04-24T01:36:11;14.73;;;10.93;;
21305;SDS011;10812;51.838;5.838;2023-04-24T01:38:40;13.83;;;10.67;;
21305;SDS011;10812;51.838;5.838;2023-04-24T01:41:10;15.63;;;10.97;;
21305;SDS011;10812;51.838;5.838;2023-04-24T01:43:38;15.53;;;10.93;;
21305;SDS011;10812;51.838;5.838;2023-04-24T01:46:06;15.67;;;11.40;;
21305;SDS011;10812;51.838;5.838;2023-04-24T01:48:35;14.53;;;11.43;;
21305;SDS011;10812;51.838;5.838;2023-04-24T01:51:03;16.57;;;10.60;;
21305;SDS011;10812;51.838;5.838;2023-04-24T01:53:31;15.20;;;11.27;;
21305;SDS011;10812;51.838;5.838;2023-04-24T01:56:00;20.77;;;13.43;;
21305;SDS011;10812;51.838;5.838;2023-04-24T01:58:30;18.27;;;12.23;;
21305;SDS011;10812;51.838;5.838;2023-04-24T02:00:58;18.17;;;12.93;;
21305;SDS011;10812;51.838;5.838;2023-04-24T02:03:27;21.37;;;13.37;;
21305;SDS011;10812;51.838;5.838;2023-04-24T02:05:55;20.37;;;13.27;;
21305;SDS011;10812;51.838;5.838;2023-04-24T02:08:24;19.83;;;13.63;;
21305;SDS011;10812;51.838;5.838;2023-04-24T02:10:52;17.97;;;12.53;;
21305;SDS011;10812;51.838;5.838;2023-04-24T02:13:20;18.03;;;13.03;;
21305;SDS011;10812;51.838;5.838;2023-04-24T02:15:49;18.93;;;12.67;;
21305;SDS011;10812;51.838;5.838;2023-04-24T02:18:18;17.23;;;11.60;;
21305;SDS011;10812;51.838;5.838;2023-04-24T02:20:46;19.53;;;12.93;;
21305;SDS011;10812;51.838;5.838;2023-04-24T02:23:14;15.23;;;11.43;;
21305;SDS011;10812;51.838;5.838;2023-04-24T02:25:42;15.67;;;11.53;;
21305;SDS011;10812;51.838;5.838;2023-04-24T02:28:10;15.93;;;11.33;;
21305;SDS011;10812;51.838;5.838;2023-04-24T02:30:39;15.07;;;10.73;;
21305;SDS011;10812;51.838;5.838;2023-04-24T02:33:08;14.17;;;10.30;;
21305;SDS011;10812;51.838;5.838;2023-04-24T02:35:36;15.70;;;11.13;;
21305;SDS011;10812;51.838;5.838;2023-04-24T02:38:04;18.00;;;11.37;;
21305;SDS011;10812;51.838;5.838;2023-04-24T02:40:33;13.53;;;10.37;;
21305;SDS011;10812;51.838;5.838;2023-04-24T02:43:01;16.70;;;11.30;;
21305;SDS011;10812;51.838;5.838;2023-04-24T02:45:29;16.30;;;11.30;;
21305;SDS011;10812;51.838;5.838;2023-04-24T02:47:57;20.63;;;13.00;;
21305;SDS011;10812;51.838;5.838;2023-04-24T02:50:27;18.07;;;13.07;;
21305;SDS011;10812;51.838;5.838;2023-04-24T02:52:55;19.93;;;13.23;;
21305;SDS011;10812;51.838;5.838;2023-04-24T02:55:25;21.73;;;13.87;;
21305;SDS011;10812;51.838;5.838;2023-04-24T02:57:54;20.60;;;14.93;;
21305;SDS011;10812;51.838;5.838;2023-04-24T03:12:37;29.63;;;19.50;;
21305;SDS011;10812;51.838;5.838;2023-04-24T03:15:06;30.23;;;20.00;;
21305;SDS011;10812;51.838;5.838;2023-04-24T03:17:35;31.37;;;21.30;;
21305;SDS011;10812;51.838;5.838;2023-04-24T03:20:04;35.33;;;21.17;;
21305;SDS011;10812;51.838;5.838;2023-04-24T03:22:34;31.10;;;19.50;;
21305;SDS011;10812;51.838;5.838;2023-04-24T03:25:03;35.97;;;21.73;;
21305;SDS011;10812;51.838;5.838;2023-04-24T03:27:31;30.60;;;20.53;;
21305;SDS011;10812;51.838;5.838;2023-04-24T03:30:01;33.40;;;21.27;;
21305;SDS011;10812;51.838;5.838;2023-04-24T03:32:29;29.70;;;21.07;;
21305;SDS011;10812;51.838;5.838;2023-04-24T03:34:58;30.07;;;21.17;;
21305;SDS011;10812;51.838;5.838;2023-04-24T03:37:26;31.37;;;21.27;;
21305;SDS011;10812;51.838;5.838;2023-04-24T03:39:54;34.33;;;20.43;;
21305;SDS011;10812;51.838;5.838;2023-04-24T03:42:22;29.87;;;20.83;;
21305;SDS011;10812;51.838;5.838;2023-04-24T03:44:51;31.73;;;20.23;;
21305;SDS011;10812;51.838;5.838;2023-04-24T03:47:20;31.37;;;21.97;;
21305;SDS011;10812;51.838;5.838;2023-04-24T03:49:48;29.73;;;20.10;;
21305;SDS011;10812;51.838;5.838;2023-04-24T03:52:17;32.33;;;22.27;;
21305;SDS011;10812;51.838;5.838;2023-04-24T03:54:45;33.90;;;22.03;;
21305;SDS011;10812;51.838;5.838;2023-04-24T04:12:39;27.40;;;18.20;;
21305;SDS011;10812;51.838;5.838;2023-04-24T04:15:07;26.63;;;17.47;;
21305;SDS011;10812;51.838;5.838;2023-04-24T04:17:36;27.87;;;18.43;;
21305;SDS011;10812;51.838;5.838;2023-04-24T04:20:05;27.73;;;17.80;;
21305;SDS011;10812;51.838;5.838;2023-04-24T04:22:36;24.77;;;17.13;;
21305;SDS011;10812;51.838;5.838;2023-04-24T04:25:05;25.83;;;17.20;;
21305;SDS011;10812;51.838;5.838;2023-04-24T04:27:34;27.00;;;17.93;;
21305;SDS011;10812;51.838;5.838;2023-04-24T04:30:04;26.00;;;17.17;;
21305;SDS011;10812;51.838;5.838;2023-04-24T04:32:33;26.23;;;18.20;;
21305;SDS011;10812;51.838;5.838;2023-04-24T04:35:02;27.70;;;19.30;;
21305;SDS011;10812;51.838;5.838;2023-04-24T04:37:30;23.77;;;16.17;;
21305;SDS011;10812;51.838;5.838;2023-04-24T04:39:59;24.20;;;16.50;;
21305;SDS011;10812;51.838;5.838;2023-04-24T04:42:32;22.73;;;16.67;;
21305;SDS011;10812;51.838;5.838;2023-04-24T04:45:02;23.37;;;16.27;;
21305;SDS011;10812;51.838;5.838;2023-04-24T04:47:33;24.17;;;15.57;;
21305;SDS011;10812;51.838;5.838;2023-04-24T04:50:02;26.33;;;15.53;;
21305;SDS011;10812;51.838;5.838;2023-04-24T04:52:31;21.50;;;14.70;;
21305;SDS011;10812;51.838;5.838;2023-04-24T04:54:59;20.23;;;14.53;;
21305;SDS011;10812;51.838;5.838;2023-04-24T04:57:28;23.00;;;15.80;;
21305;SDS011;10812;51.838;5.838;2023-04-24T04:59:56;21.60;;;15.23;;
21305;SDS011;10812;51.838;5.838;2023-04-24T05:02:25;23.30;;;14.27;;
21305;SDS011;10812;51.838;5.838;2023-04-24T05:04:54;23.13;;;14.53;;
21305;SDS011;10812;51.838;5.838;2023-04-24T05:07:22;26.37;;;14.57;;
21305;SDS011;10812;51.838;5.838;2023-04-24T05:09:51;21.37;;;14.30;;
21305;SDS011;10812;51.838;5.838;2023-04-24T05:12:19;21.90;;;14.33;;
21305;SDS011;10812;51.838;5.838;2023-04-24T05:14:47;20.20;;;14.23;;
21305;SDS011;10812;51.838;5.838;2023-04-24T05:28:40;17.93;;;12.23;;
21305;SDS011;10812;51.838;5.838;2023-04-24T05:31:08;16.87;;;11.47;;
21305;SDS011;10812;51.838;5.838;2023-04-24T05:33:36;18.07;;;11.83;;
21305;SDS011;10812;51.838;5.838;2023-04-24T05:36:05;19.03;;;12.17;;
21305;SDS011;10812;51.838;5.838;2023-04-24T05:38:34;19.63;;;12.80;;
21305;SDS011;10812;51.838;5.838;2023-04-24T05:41:02;19.63;;;12.27;;
21305;SDS011;10812;51.838;5.838;2023-04-24T05:43:30;17.47;;;12.47;;
21305;SDS011;10812;51.838;5.838;2023-04-24T05:46:00;19.30;;;12.17;;
21305;SDS011;10812;51.838;5.838;2023-04-24T05:48:28;15.57;;;11.03;;
21305;SDS011;10812;51.838;5.838;2023-04-24T05:50:57;14.67;;;10.23;;
21305;SDS011;10812;51.838;5.838;2023-04-24T05:53:25;13.10;;;7.87;;
21305;SDS011;10812;51.838;5.838;2023-04-24T05:55:53;11.77;;;7.67;;
21305;SDS011;10812;51.838;5.838;2023-04-24T05:58:21;10.87;;;7.23;;
21305;SDS011;10812;51.838;5.838;2023-04-24T06:00:49;10.97;;;8.33;;
21305;SDS011;10812;51.838;5.838;2023-04-24T06:03:19;12.40;;;8.60;;
21305;SDS011;10812;51.838;5.838;2023-04-24T06:05:49;9.97;;;7.20;;
21305;SDS011;10812;51.838;5.838;2023-04-24T06:08:17;8.43;;;6.33;;
21305;SDS011;10812;51.838;5.838;2023-04-24T06:10:45;7.83;;;5.93;;
21305;SDS011;10812;51.838;5.838;2023-04-24T06:13:13;8.17;;;6.03;;
21305;SDS011;10812;51.838;5.838;2023-04-24T06:15:42;8.23;;;5.30;;
21305;SDS011;10812;51.838;5.838;2023-04-24T06:18:11;5.87;;;4.77;;
21305;SDS011;10812;51.838;5.838;2023-04-24T06:20:41;7.50;;;4.67;;
21305;SDS011;10812;51.838;5.838;2023-04-24T06:23:09;6.37;;;4.10;;
21305;SDS011;10812;51.838;5.838;2023-04-24T06:25:37;6.90;;;4.40;;
21305;SDS011;10812;51.838;5.838;2023-04-24T06:28:06;6.73;;;4.03;;
21305;SDS011;10812;51.838;5.838;2023-04-24T06:30:34;5.13;;;4.27;;
21305;SDS011;10812;51.838;5.838;2023-04-24T06:33:02;7.50;;;4.50;;
21305;SDS011;10812;51.838;5.838;2023-04-24T06:46:52;4.27;;;3.43;;
21305;SDS011;10812;51.838;5.838;2023-04-24T06:49:20;4.57;;;3.60;;
21305;SDS011;10812;51.838;5.838;2023-04-24T06:51:49;4.57;;;3.07;;
21305;SDS011;10812;51.838;5.838;2023-04-24T06:54:17;3.30;;;3.00;;
21305;SDS011;10812;51.838;5.838;2023-04-24T06:56:45;4.17;;;3.60;;
21305;SDS011;10812;51.838;5.838;2023-04-24T06:59:14;3.50;;;3.20;;
21305;SDS011;10812;51.838;5.838;2023-04-24T07:01:42;5.83;;;3.27;;
21305;SDS011;10812;51.838;5.838;2023-04-24T07:04:11;3.57;;;2.37;;
21305;SDS011;10812;51.838;5.838;2023-04-24T07:06:40;1.87;;;1.30;;
21305;SDS011;10812;51.838;5.838;2023-04-24T07:09:08;2.83;;;1.30;;
21305;SDS011;10812;51.838;5.838;2023-04-24T07:11:36;1.53;;;1.03;;
21305;SDS011;10812;51.838;5.838;2023-04-24T07:14:07;1.40;;;1.23;;
21305;SDS011;10812;51.838;5.838;2023-04-24T07:16:35;3.13;;;1.23;;
21305;SDS011;10812;51.838;5.838;2023-04-24T07:19:05;1.70;;;0.70;;
21305;SDS011;10812;51.838;5.838;2023-04-24T07:21:35;1.00;;;0.80;;
21305;SDS011;10812;51.838;5.838;2023-04-24T07:24:03;0.73;;;0.70;;
21305;SDS011;10812;51.838;5.838;2023-04-24T07:26:35;1.47;;;0.60;;
21305;SDS011;10812;51.838;5.838;2023-04-24T07:29:04;0.90;;;0.50;;
21305;SDS011;10812;51.838;5.838;2023-04-24T07:31:32;1.00;;;0.80;;
21305;SDS011;10812;51.838;5.838;2023-04-24T07:34:00;2.30;;;1.10;;
21305;SDS011;10812;51.838;5.838;2023-04-24T07:36:29;1.30;;;1.07;;
21305;SDS011;10812;51.838;5.838;2023-04-24T07:38:59;2.40;;;1.70;;
21305;SDS011;10812;51.838;5.838;2023-04-24T07:41:28;2.87;;;1.50;;
21305;SDS011;10812;51.838;5.838;2023-04-24T07:43:56;2.77;;;2.10;;
21305;SDS011;10812;51.838;5.838;2023-04-24T07:46:24;2.13;;;1.93;;
21305;SDS011;10812;51.838;5.838;2023-04-24T07:48:56;3.93;;;2.50;;
21305;SDS011;10812;51.838;5.838;2023-04-24T07:51:39;3.93;;;2.53;;
21305;SDS011;10812;51.838;5.838;2023-04-24T07:54:09;3.77;;;2.77;;
21305;SDS011;10812;51.838;5.838;2023-04-24T07:56:37;5.97;;;3.20;;
21305;SDS011;10812;51.838;5.838;2023-04-24T07:59:06;4.53;;;3.50;;
21305;SDS011;10812;51.838;5.838;2023-04-24T08:01:34;6.27;;;4.43;;
21305;SDS011;10812;51.838;5.838;2023-04-24T08:04:02;11.53;;;7.13;;
21305;SDS011;10812;51.838;5.838;2023-04-24T08:06:30;13.57;;;7.33;;
21305;SDS011;10812;51.838;5.838;2023-04-24T08:08:59;12.53;;;7.50;;
21305;SDS011;10812;51.838;5.838;2023-04-24T08:11:29;11.50;;;8.20;;
21305;SDS011;10812;51.838;5.838;2023-04-24T08:13:58;14.03;;;8.07;;
21305;SDS011;10812;51.838;5.838;2023-04-24T08:16:26;12.83;;;8.77;;
21305;SDS011;10812;51.838;5.838;2023-04-24T08:18:54;14.20;;;9.10;;
21305;SDS011;10812;51.838;5.838;2023-04-24T08:21:22;16.63;;;10.07;;
21305;SDS011;10812;51.838;5.838;2023-04-24T08:23:52;14.50;;;8.97;;
21305;SDS011;10812;51.838;5.838;2023-04-24T08:26:20;15.53;;;9.40;;
21305;SDS011;10812;51.838;5.838;2023-04-24T08:28:50;13.90;;;8.73;;
21305;SDS011;10812;51.838;5.838;2023-04-24T08:31:18;16.63;;;10.37;;
21305;SDS011;10812;51.838;5.838;2023-04-24T08:33:47;14.23;;;8.30;;
21305;SDS011;10812;51.838;5.838;2023-04-24T08:36:15;12.33;;;7.53;;
21305;SDS011;10812;51.838;5.838;2023-04-24T08:38:43;10.00;;;7.47;;
21305;SDS011;10812;51.838;5.838;2023-04-24T08:41:12;17.50;;;9.87;;
21305;SDS011;10812;51.838;5.838;2023-04-24T08:43:42;16.87;;;9.40;;
21305;SDS011;10812;51.838;5.838;2023-04-24T08:46:14;17.13;;;9.67;;
21305;SDS011;10812;51.838;5.838;2023-04-24T08:48:43;14.83;;;9.33;;
21305;SDS011;10812;51.838;5.838;2023-04-24T08:51:12;14.60;;;9.33;;
21305;SDS011;10812;51.838;5.838;2023-04-24T08:53:41;16.83;;;9.97;;
21305;SDS011;10812;51.838;5.838;2023-04-24T08:56:10;15.10;;;8.27;;
21305;SDS011;10812;51.838;5.838;2023-04-24T08:58:39;18.13;;;8.57;;
21305;SDS011;10812;51.838;5.838;2023-04-24T09:01:08;16.47;;;7.33;;
21305;SDS011;10812;51.838;5.838;2023-04-24T09:03:38;16.30;;;7.33;;
21305;SDS011;10812;51.838;5.838;2023-04-24T09:06:07;21.37;;;6.93;;
21305;SDS011;10812;51.838;5.838;2023-04-24T09:08:36;16.07;;;7.17;;
21305;SDS011;10812;51.838;5.838;2023-04-24T09:11:07;15.30;;;5.73;;
21305;SDS011;10812;51.838;5.838;2023-04-24T09:13:36;11.77;;;5.20;;
21305;SDS011;10812;51.838;5.838;2023-04-24T09:16:05;9.27;;;4.97;;
21305;SDS011;10812;51.838;5.838;2023-04-24T09:18:33;11.67;;;4.47;;
21305;SDS011;10812;51.838;5.838;2023-04-24T09:21:03;17.43;;;4.93;;
21305;SDS011;10812;51.838;5.838;2023-04-24T09:23:34;11.07;;;3.83;;
21305;SDS011;10812;51.838;5.838;2023-04-24T09:26:02;5.10;;;2.60;;
21305;SDS011;10812;51.838;5.838;2023-04-24T09:28:32;9.70;;;3.07;;
21305;SDS011;10812;51.838;5.838;2023-04-24T09:31:04;8.70;;;2.90;;
21305;SDS011;10812;51.838;5.838;2023-04-24T09:33:33;7.53;;;2.50;;
21305;SDS011;10812;51.838;5.838;2023-04-24T09:36:04;5.10;;;2.00;;
21305;SDS011;10812;51.838;5.838;2023-04-24T09:38:33;5.37;;;2.50;;
21305;SDS011;10812;51.838;5.838;2023-04-24T09:41:03;7.17;;;3.27;;
21305;SDS011;10812;51.838;5.838;2023-04-24T09:43:33;6.70;;;2.63;;
21305;SDS011;10812;51.838;5.838;2023-04-24T09:46:04;8.07;;;2.10;;
21305;SDS011;10812;51.838;5.838;2023-04-24T09:48:35;11.43;;;3.10;;
21305;SDS011;10812;51.838;5.838;2023-04-24T09:51:05;7.83;;;2.60;;
21305;SDS011;10812;51.838;5.838;2023-04-24T09:53:37;9.80;;;2.70;;
21305;SDS011;10812;51.838;5.838;2023-04-24T09:56:06;5.60;;;2.23;;
21305;SDS011;10812;51.838;5.838;2023-04-24T09:58:36;7.93;;;2.43;;
21305;SDS011;10812;51.838;5.838;2023-04-24T10:01:04;6.10;;;2.60;;
21305;SDS011;10812;51.838;5.838;2023-04-24T10:03:33;10.33;;;2.80;;
21305;SDS011;10812;51.838;5.838;2023-04-24T10:06:02;9.33;;;2.30;;
21305;SDS011;10812;51.838;5.838;2023-04-24T10:08:36;10.43;;;2.90;;
21305;SDS011;10812;51.838;5.838;2023-04-24T10:11:05;8.37;;;2.37;;
21305;SDS011;10812;51.838;5.838;2023-04-24T10:13:35;7.37;;;2.43;;
21305;SDS011;10812;51.838;5.838;2023-04-24T10:31:31;7.40;;;1.57;;
21305;SDS011;10812;51.838;5.838;2023-04-24T10:34:00;5.40;;;2.40;;
21305;SDS011;10812;51.838;5.838;2023-04-24T10:36:29;4.07;;;1.90;;
21305;SDS011;10812;51.838;5.838;2023-04-24T10:39:00;4.37;;;1.80;;
21305;SDS011;10812;51.838;5.838;2023-04-24T10:41:30;3.50;;;1.60;;
21305;SDS011;10812;51.838;5.838;2023-04-24T10:44:03;6.13;;;1.90;;
21305;SDS011;10812;51.838;5.838;2023-04-24T10:46:34;4.20;;;1.40;;
21305;SDS011;10812;51.838;5.838;2023-04-24T10:49:03;7.20;;;1.50;;
21305;SDS011;10812;51.838;5.838;2023-04-24T10:51:45;3.43;;;1.80;;
21305;SDS011;10812;51.838;5.838;2023-04-24T10:54:24;4.83;;;1.70;;
21305;SDS011;10812;51.838;5.838;2023-04-24T10:56:55;3.87;;;1.40;;
21305;SDS011;10812;51.838;5.838;2023-04-24T11:00:15;7.83;;;2.03;;
21305;SDS011;10812;51.838;5.838;2023-04-24T11:02:48;6.23;;;1.63;;
21305;SDS011;10812;51.838;5.838;2023-04-24T11:05:19;4.83;;;1.20;;
21305;SDS011;10812;51.838;5.838;2023-04-24T11:10:45;2.43;;;1.20;;
21305;SDS011;10812;51.838;5.838;2023-04-24T11:13:14;3.33;;;1.27;;
21305;SDS011;10812;51.838;5.838;2023-04-24T11:15:43;2.73;;;0.87;;
21305;SDS011;10812;51.838;5.838;2023-04-24T11:18:16;3.87;;;1.10;;
21305;SDS011;10812;51.838;5.838;2023-04-24T11:20:44;3.27;;;1.10;;
21305;SDS011;10812;51.838;5.838;2023-04-24T11:23:13;2.87;;;1.10;;
21305;SDS011;10812;51.838;5.838;2023-04-24T11:25:42;1.87;;;0.77;;
21305;SDS011;10812;51.838;5.838;2023-04-24T11:39:45;2.90;;;1.40;;
21305;SDS011;10812;51.838;5.838;2023-04-24T11:42:14;3.30;;;1.07;;
21305;SDS011;10812;51.838;5.838;2023-04-24T11:44:43;2.83;;;1.03;;
21305;SDS011;10812;51.838;5.838;2023-04-24T11:47:13;3.33;;;1.30;;
21305;SDS011;10812;51.838;5.838;2023-04-24T11:49:42;3.53;;;1.00;;
21305;SDS011;10812;51.838;5.838;2023-04-24T11:52:10;3.17;;;0.83;;
21305;SDS011;10812;51.838;5.838;2023-04-24T11:54:38;6.53;;;1.13;;
21305;SDS011;10812;51.838;5.838;2023-04-24T11:57:18;2.40;;;0.83;;
21305;SDS011;10812;51.838;5.838;2023-04-24T11:59:48;2.57;;;1.00;;
21305;SDS011;10812;51.838;5.838;2023-04-24T12:02:20;1.33;;;0.80;;
21305;SDS011;10812;51.838;5.838;2023-04-24T12:04:49;1.13;;;0.90;;
21305;SDS011;10812;51.838;5.838;2023-04-24T12:07:18;5.07;;;1.07;;
21305;SDS011;10812;51.838;5.838;2023-04-24T12:09:47;4.73;;;1.70;;
21305;SDS011;10812;51.838;5.838;2023-04-24T12:12:23;2.20;;;0.80;;
21305;SDS011;10812;51.838;5.838;2023-04-24T12:14:53;0.93;;;0.60;;
21305;SDS011;10812;51.838;5.838;2023-04-24T12:17:24;2.47;;;0.60;;
21305;SDS011;10812;51.838;5.838;2023-04-24T12:19:57;1.33;;;0.80;;
21305;SDS011;10812;51.838;5.838;2023-04-24T12:22:27;6.37;;;1.13;;
21305;SDS011;10812;51.838;5.838;2023-04-24T12:24:57;0.70;;;0.50;;
21305;SDS011;10812;51.838;5.838;2023-04-24T12:27:29;1.00;;;0.73;;
21305;SDS011;10812;51.838;5.838;2023-04-24T12:29:59;2.10;;;0.60;;
21305;SDS011;10812;51.838;5.838;2023-04-24T12:32:28;2.87;;;0.80;;
21305;SDS011;10812;51.838;5.838;2023-04-24T12:34:57;2.50;;;1.00;;
21305;SDS011;10812;51.838;5.838;2023-04-24T12:37:26;3.07;;;1.10;;
21305;SDS011;10812;51.838;5.838;2023-04-24T12:40:05;3.47;;;0.87;;
21305;SDS011;10812;51.838;5.838;2023-04-24T12:42:35;3.03;;;0.90;;
21305;SDS011;10812;51.838;5.838;2023-04-24T12:45:09;1.80;;;0.93;;
21305;SDS011;10812;51.838;5.838;2023-04-24T12:47:38;2.73;;;1.30;;
21305;SDS011;10812;51.838;5.838;2023-04-24T12:50:07;6.63;;;1.17;;
21305;SDS011;10812;51.838;5.838;2023-04-24T12:52:37;2.67;;;1.00;;
21305;SDS011;10812;51.838;5.838;2023-04-24T12:55:08;3.03;;;1.23;;
21305;SDS011;10812;51.838;5.838;2023-04-24T12:57:36;3.57;;;1.40;;
21305;SDS011;10812;51.838;5.838;2023-04-24T13:00:06;4.43;;;1.37;;
21305;SDS011;10812;51.838;5.838;2023-04-24T13:02:35;3.07;;;1.17;;
21305;SDS011;10812;51.838;5.838;2023-04-24T13:05:04;4.20;;;1.47;;
21305;SDS011;10812;51.838;5.838;2023-04-24T13:07:33;3.70;;;1.83;;
21305;SDS011;10812;51.838;5.838;2023-04-24T13:10:01;5.07;;;1.40;;
21305;SDS011;10812;51.838;5.838;2023-04-24T13:12:31;3.27;;;1.40;;
21305;SDS011;10812;51.838;5.838;2023-04-24T13:14:59;5.13;;;1.07;;
21305;SDS011;10812;51.838;5.838;2023-04-24T13:17:27;3.27;;;1.10;;
21305;SDS011;10812;51.838;5.838;2023-04-24T13:19:56;3.80;;;0.83;;
21305;SDS011;10812;51.838;5.838;2023-04-24T13:22:24;3.73;;;1.47;;
21305;SDS011;10812;51.838;5.838;2023-04-24T13:24:53;2.37;;;0.90;;
21305;SDS011;10812;51.838;5.838;2023-04-24T13:27:22;5.47;;;1.40;;
21305;SDS011;10812;51.838;5.838;2023-04-24T13:29:52;4.43;;;1.13;;
21305;SDS011;10812;51.838;5.838;2023-04-24T13:32:20;2.30;;;1.03;;
21305;SDS011;10812;51.838;5.838;2023-04-24T13:34:48;3.43;;;1.30;;
21305;SDS011;10812;51.838;5.838;2023-04-24T13:37:16;3.77;;;1.30;;
21305;SDS011;10812;51.838;5.838;2023-04-24T13:43:05;3.17;;;1.30;;
21305;SDS011;10812;51.838;5.838;2023-04-24T13:45:34;5.37;;;1.40;;
21305;SDS011;10812;51.838;5.838;2023-04-24T13:48:04;3.13;;;1.47;;
21305;SDS011;10812;51.838;5.838;2023-04-24T13:50:32;3.57;;;1.47;;
21305;SDS011;10812;51.838;5.838;2023-04-24T13:53:00;4.67;;;1.47;;
21305;SDS011;10812;51.838;5.838;2023-04-24T13:55:29;4.23;;;1.37;;
21305;SDS011;10812;51.838;5.838;2023-04-24T13:57:57;3.83;;;1.43;;
21305;SDS011;10812;51.838;5.838;2023-04-24T14:00:25;5.73;;;1.97;;
21305;SDS011;10812;51.838;5.838;2023-04-24T14:02:55;4.53;;;1.47;;
21305;SDS011;10812;51.838;5.838;2023-04-24T14:05:23;9.40;;;2.10;;
21305;SDS011;10812;51.838;5.838;2023-04-24T14:07:51;6.73;;;2.33;;
21305;SDS011;10812;51.838;5.838;2023-04-24T14:10:19;3.90;;;1.70;;
21305;SDS011;10812;51.838;5.838;2023-04-24T14:12:47;7.20;;;2.10;;
21305;SDS011;10812;51.838;5.838;2023-04-24T14:15:16;5.27;;;1.97;;
21305;SDS011;10812;51.838;5.838;2023-04-24T14:17:44;5.77;;;1.50;;
21305;SDS011;10812;51.838;5.838;2023-04-24T14:20:13;4.93;;;2.10;;
21305;SDS011;10812;51.838;5.838;2023-04-24T14:22:42;6.47;;;2.00;;
21305;SDS011;10812;51.838;5.838;2023-04-24T14:25:10;5.53;;;1.50;;
21305;SDS011;10812;51.838;5.838;2023-04-24T14:27:38;2.60;;;1.07;;
21305;SDS011;10812;51.838;5.838;2023-04-24T14:30:06;6.27;;;1.77;;
21305;SDS011;10812;51.838;5.838;2023-04-24T14:32:35;6.03;;;1.90;;
21305;SDS011;10812;51.838;5.838;2023-04-24T14:35:04;6.13;;;1.60;;
21305;SDS011;10812;51.838;5.838;2023-04-24T14:37:34;5.40;;;2.30;;
21305;SDS011;10812;51.838;5.838;2023-04-24T14:40:03;6.50;;;1.67;;
21305;SDS011;10812;51.838;5.838;2023-04-24T14:42:36;3.53;;;1.40;;
21305;SDS011;10812;51.838;5.838;2023-04-24T14:45:05;8.17;;;2.27;;
21305;SDS011;10812;51.838;5.838;2023-04-24T14:47:34;7.83;;;1.93;;
21305;SDS011;10812;51.838;5.838;2023-04-24T14:50:04;7.67;;;2.23;;
21305;SDS011;10812;51.838;5.838;2023-04-24T14:52:34;6.17;;;2.47;;
21305;SDS011;10812;51.838;5.838;2023-04-24T14:55:04;4.47;;;1.87;;
21305;SDS011;10812;51.838;5.838;2023-04-24T14:57:33;6.87;;;2.03;;
21305;SDS011;10812;51.838;5.838;2023-04-24T15:00:02;7.17;;;2.10;;
21305;SDS011;10812;51.838;5.838;2023-04-24T15:02:32;5.13;;;2.00;;
21305;SDS011;10812;51.838;5.838;2023-04-24T15:05:08;5.40;;;2.03;;
21305;SDS011;10812;51.838;5.838;2023-04-24T15:07:38;5.43;;;1.87;;
21305;SDS011;10812;51.838;5.838;2023-04-24T15:10:08;3.97;;;1.93;;
21305;SDS011;10812;51.838;5.838;2023-04-24T15:12:36;6.40;;;1.83;;
21305;SDS011;10812;51.838;5.838;2023-04-24T15:15:05;6.90;;;2.30;;
21305;SDS011;10812;51.838;5.838;2023-04-24T15:17:37;7.77;;;2.37;;
21305;SDS011;10812;51.838;5.838;2023-04-24T15:20:09;2.47;;;1.60;;
21305;SDS011;10812;51.838;5.838;2023-04-24T15:22:38;6.47;;;2.40;;
21305;SDS011;10812;51.838;5.838;2023-04-24T15:25:07;6.90;;;2.07;;
21305;SDS011;10812;51.838;5.838;2023-04-24T15:27:39;3.23;;;1.30;;
21305;SDS011;10812;51.838;5.838;2023-04-24T15:30:08;5.20;;;2.00;;
21305;SDS011;10812;51.838;5.838;2023-04-24T15:32:38;6.37;;;1.53;;
21305;SDS011;10812;51.838;5.838;2023-04-24T15:35:06;3.57;;;1.53;;
21305;SDS011;10812;51.838;5.838;2023-04-24T15:37:35;3.47;;;1.50;;
21305;SDS011;10812;51.838;5.838;2023-04-24T15:40:06;3.73;;;1.90;;
21305;SDS011;10812;51.838;5.838;2023-04-24T15:42:37;5.37;;;2.47;;
21305;SDS011;10812;51.838;5.838;2023-04-24T15:45:06;3.37;;;1.70;;
21305;SDS011;10812;51.838;5.838;2023-04-24T15:47:35;5.00;;;2.00;;
21305;SDS011;10812;51.838;5.838;2023-04-24T15:50:04;6.97;;;1.90;;
21305;SDS011;10812;51.838;5.838;2023-04-24T15:52:35;6.20;;;2.07;;
21305;SDS011;10812;51.838;5.838;2023-04-24T15:55:03;4.87;;;1.90;;
21305;SDS011;10812;51.838;5.838;2023-04-24T15:57:33;5.73;;;2.20;;
21305;SDS011;10812;51.838;5.838;2023-04-24T16:00:02;5.00;;;2.10;;
21305;SDS011;10812;51.838;5.838;2023-04-24T16:02:32;3.77;;;1.70;;
21305;SDS011;10812;51.838;5.838;2023-04-24T16:05:01;7.00;;;2.30;;
21305;SDS011;10812;51.838;5.838;2023-04-24T16:07:29;8.63;;;3.93;;
21305;SDS011;10812;51.838;5.838;2023-04-24T16:09:58;4.77;;;2.10;;
21305;SDS011;10812;51.838;5.838;2023-04-24T16:12:27;3.73;;;2.00;;
21305;SDS011;10812;51.838;5.838;2023-04-24T16:14:55;6.73;;;2.07;;